Time;durP1;ratioP1;P1;durP2;ratioP2;P2;SDS_P1;SDS_P2;PMS_P1;PMS_P2;Temp;Humidity;BMP_temperature;BMP_pressure;BME280_temperature;BME280_humidity;BME280_pressure;Samples;Min_cycle;Max_cycle;Signal;HPM_P1;HPM_P2
2022/02/27 00:00:48;;;;;;;18.30;7.43;;;4.60;99.90;;;;;;5048635;28;20044;-58
2022/02/27 00:03:14;;;;;;;18.13;7.43;;;4.50;99.90;;;;;;5048634;28;20554;-56
2022/02/27 00:05:40;;;;;;;18.75;6.90;;;4.50;99.90;;;;;;5047722;28;20044;-58
2022/02/27 00:08:05;;;;;;;21.05;8.20;;;4.40;99.90;;;;;;5048691;28;20036;-61
2022/02/27 00:10:31;;;;;;;15.57;7.40;;;4.40;99.90;;;;;;5046367;28;20025;-62
2022/02/27 00:12:57;;;;;;;16.45;6.85;;;4.30;99.90;;;;;;5048742;28;20035;-62
2022/02/27 00:15:23;;;;;;;14.43;7.05;;;4.40;99.90;;;;;;5048098;28;20017;-60
2022/02/27 00:17:48;;;;;;;18.27;7.88;;;4.50;99.90;;;;;;5048509;28;20498;-62
2022/02/27 00:20:14;;;;;;;20.33;6.97;;;4.40;99.90;;;;;;5048987;28;20467;-60
2022/02/27 00:22:40;;;;;;;19.00;6.88;;;4.40;99.90;;;;;;5048589;28;20033;-59
2022/02/27 00:25:07;;;;;;;16.05;7.18;;;4.40;99.90;;;;;;5047867;28;20477;-60
2022/02/27 00:27:34;;;;;;;13.95;5.95;;;4.30;99.90;;;;;;5048278;28;20336;-59
2022/02/27 00:29:59;;;;;;;18.95;6.50;;;4.30;99.90;;;;;;5048622;28;20040;-61
2022/02/27 00:32:25;;;;;;;19.42;6.93;;;4.20;99.90;;;;;;5048949;28;20029;-61
2022/02/27 00:34:51;;;;;;;16.85;6.53;;;4.30;99.90;;;;;;5048170;28;20049;-61
2022/02/27 00:37:16;;;;;;;15.02;6.47;;;4.30;99.90;;;;;;5048466;28;20171;-61
2022/02/27 00:39:42;;;;;;;14.55;6.55;;;4.20;99.90;;;;;;5048108;28;20044;-61
2022/02/27 00:42:08;;;;;;;15.32;6.82;;;4.30;99.90;;;;;;5051707;28;20355;-60
2022/02/27 00:44:33;;;;;;;14.60;6.57;;;4.20;99.90;;;;;;5052259;28;20027;-60
2022/02/27 00:46:59;;;;;;;17.52;6.05;;;4.20;99.90;;;;;;5051857;28;20567;-60
2022/02/27 00:49:24;;;;;;;9.00;4.90;;;4.20;99.90;;;;;;5052443;28;20028;-60
2022/02/27 00:51:50;;;;;;;11.90;5.90;;;4.20;99.90;;;;;;5051869;28;20033;-57
2022/02/27 00:54:16;;;;;;;10.50;5.03;;;4.20;99.90;;;;;;5052029;28;20082;-60
2022/02/27 00:56:41;;;;;;;18.30;5.60;;;4.20;99.90;;;;;;5051045;28;20060;-59
2022/02/27 00:59:07;;;;;;;18.20;6.75;;;4.20;99.90;;;;;;5052180;28;20448;-60
2022/02/27 01:01:33;;;;;;;15.40;6.05;;;4.20;99.90;;;;;;5051808;28;20094;-60
2022/02/27 01:03:58;;;;;;;17.73;6.25;;;4.10;99.90;;;;;;5052087;28;20506;-61
2022/02/27 01:06:24;;;;;;;21.40;7.75;;;4.20;99.90;;;;;;5051861;28;20059;-62
2022/02/27 01:08:50;;;;;;;15.13;6.05;;;4.20;99.90;;;;;;5051369;28;20865;-60
2022/02/27 01:11:16;;;;;;;16.55;7.18;;;4.20;99.90;;;;;;5052099;28;20009;-60
2022/02/27 01:13:42;;;;;;;13.45;5.97;;;4.20;99.90;;;;;;5051514;28;20043;-60
2022/02/27 01:16:08;;;;;;;13.55;6.50;;;4.10;99.90;;;;;;5051556;28;20243;-57
2022/02/27 01:18:34;;;;;;;15.38;6.50;;;4.10;99.90;;;;;;5052024;28;20090;-59
2022/02/27 01:21:00;;;;;;;11.18;5.60;;;4.10;99.90;;;;;;5051577;28;20037;-62
2022/02/27 01:23:25;;;;;;;13.50;6.00;;;4.10;99.90;;;;;;5051772;28;20071;-61
2022/02/27 01:25:51;;;;;;;17.45;6.97;;;3.90;99.90;;;;;;5050246;28;20025;-62
2022/02/27 01:28:17;;;;;;;16.20;6.78;;;4.00;99.90;;;;;;5051882;28;20082;-58
2022/02/27 01:30:43;;;;;;;12.70;6.13;;;4.00;99.90;;;;;;5051516;28;20033;-60
2022/02/27 01:33:09;;;;;;;16.83;6.53;;;3.90;99.90;;;;;;5051680;28;20028;-58
2022/02/27 01:35:35;;;;;;;18.90;6.85;;;3.90;99.90;;;;;;5050357;28;20033;-61
2022/02/27 01:38:01;;;;;;;12.15;5.97;;;3.90;99.90;;;;;;5051473;28;20033;-58
2022/02/27 01:40:27;;;;;;;15.68;5.80;;;3.90;99.90;;;;;;5051477;28;20421;-61
2022/02/27 01:42:53;;;;;;;14.23;5.82;;;3.90;99.90;;;;;;5051426;28;20036;-56
2022/02/27 01:45:19;;;;;;;14.48;6.45;;;3.80;99.90;;;;;;5050825;28;20037;-57
2022/02/27 01:47:45;;;;;;;27.38;6.13;;;3.80;99.90;;;;;;5050836;28;20053;-59
2022/02/27 01:50:10;;;;;;;14.30;5.97;;;3.70;99.90;;;;;;5051726;28;20033;-56
2022/02/27 01:52:37;;;;;;;12.27;5.32;;;3.80;99.90;;;;;;5050851;28;20029;-57
2022/02/27 01:55:04;;;;;;;14.25;5.63;;;3.70;99.90;;;;;;5050727;28;20029;-56
2022/02/27 01:57:30;;;;;;;15.48;6.40;;;3.70;99.90;;;;;;5050973;28;20455;-57
2022/02/27 01:59:55;;;;;;;15.38;6.85;;;3.70;99.90;;;;;;5050848;28;20121;-60
2022/02/27 02:02:21;;;;;;;14.27;5.80;;;3.70;99.90;;;;;;5051040;28;20033;-58
2022/02/27 02:04:47;;;;;;;16.63;5.85;;;3.60;99.90;;;;;;5050460;28;20105;-59
2022/02/27 02:07:13;;;;;;;21.05;5.85;;;3.70;99.90;;;;;;5050708;28;20121;-57
2022/02/27 02:09:39;;;;;;;15.88;5.88;;;3.60;99.90;;;;;;5050409;28;20036;-56
2022/02/27 02:12:07;;;;;;;14.38;6.07;;;3.60;99.90;;;;;;5051146;28;20100;-60
2022/02/27 02:14:33;;;;;;;17.05;5.85;;;3.70;99.90;;;;;;5050645;28;20593;-60
2022/02/27 02:16:59;;;;;;;11.90;5.60;;;3.60;99.90;;;;;;5050236;28;20372;-55
2022/02/27 02:19:26;;;;;;;10.50;5.15;;;3.60;99.90;;;;;;5050942;28;20029;-57
2022/02/27 02:21:57;;;;;;;12.70;5.25;;;3.60;99.90;;;;;;5049911;28;20029;-58
2022/02/27 02:24:22;;;;;;;14.50;5.28;;;3.50;99.90;;;;;;5050804;28;20025;-58
2022/02/27 02:26:48;;;;;;;13.82;5.07;;;3.50;99.90;;;;;;5049316;28;20109;-58
2022/02/27 02:29:16;;;;;;;13.68;4.78;;;3.50;99.90;;;;;;5050633;28;20021;-57
2022/02/27 02:31:43;;;;;;;16.15;4.93;;;3.50;99.90;;;;;;5050007;28;20479;-57
2022/02/27 02:34:11;;;;;;;15.07;5.63;;;3.50;99.90;;;;;;5050279;28;20494;-58
2022/02/27 02:36:38;;;;;;;9.32;4.95;;;3.40;99.90;;;;;;5049349;28;20024;-58
2022/02/27 02:39:10;;;;;;;12.13;5.20;;;3.40;99.90;;;;;;5050489;28;20037;-58
2022/02/27 02:41:36;;;;;;;14.13;5.18;;;3.40;99.90;;;;;;5049836;28;20021;-54
2022/02/27 02:44:02;;;;;;;11.75;5.07;;;3.30;99.90;;;;;;5050540;28;20033;-58
2022/02/27 02:46:31;;;;;;;11.52;5.32;;;3.40;99.90;;;;;;5049355;28;20478;-59
2022/02/27 02:48:57;;;;;;;10.18;4.45;;;3.30;99.90;;;;;;5050282;28;20108;-56
2022/02/27 02:51:23;;;;;;;17.13;4.60;;;3.30;99.90;;;;;;5050147;28;20182;-59
2022/02/27 02:53:49;;;;;;;13.10;4.50;;;3.30;99.90;;;;;;5049887;28;20032;-58
2022/02/27 02:56:15;;;;;;;15.30;4.68;;;3.30;99.90;;;;;;5049287;28;20021;-58
2022/02/27 02:58:42;;;;;;;11.48;5.03;;;3.30;99.90;;;;;;5049549;28;20104;-58
2022/02/27 03:01:13;;;;;;;16.92;6.13;;;3.20;99.90;;;;;;5049968;28;20047;-58
2022/02/27 03:03:40;;;;;;;16.55;5.07;;;3.20;99.90;;;;;;5030999;28;20021;-57
2022/02/27 03:06:08;;;;;;;8.30;4.75;;;3.20;99.90;;;;;;5040283;28;20112;-57
2022/02/27 03:08:34;;;;;;;12.73;4.85;;;3.20;99.90;;;;;;5029657;28;20022;-57
2022/02/27 03:11:00;;;;;;;14.55;4.80;;;3.20;99.90;;;;;;5029767;28;20029;-55
2022/02/27 03:13:26;;;;;;;11.45;4.32;;;3.10;99.90;;;;;;5029699;28;20029;-57
2022/02/27 03:15:52;;;;;;;14.93;5.78;;;3.00;99.90;;;;;;5028505;28;20033;-55
2022/02/27 03:18:17;;;;;;;15.18;5.65;;;3.00;99.90;;;;;;5029631;28;20116;-60
2022/02/27 03:20:43;;;;;;;11.85;6.40;;;3.00;99.90;;;;;;5029225;28;20060;-60
2022/02/27 03:23:09;;;;;;;15.25;5.85;;;2.90;99.90;;;;;;5029638;28;20356;-57
2022/02/27 03:25:35;;;;;;;16.60;6.38;;;2.90;99.90;;;;;;5028348;28;20045;-57
2022/02/27 03:28:00;;;;;;;15.18;5.60;;;2.90;99.90;;;;;;5029545;28;20431;-57
2022/02/27 03:30:26;;;;;;;15.52;6.18;;;2.90;99.90;;;;;;5029547;28;20029;-58
2022/02/27 03:32:52;;;;;;;16.48;5.97;;;2.80;99.90;;;;;;5029107;28;20095;-57
2022/02/27 03:35:19;;;;;;;12.25;5.05;;;2.80;99.90;;;;;;5028970;28;20037;-59
2022/02/27 03:37:49;;;;;;;10.75;4.65;;;2.80;99.90;;;;;;5029337;28;20585;-57
2022/02/27 03:40:15;;;;;;;14.88;5.40;;;2.70;99.90;;;;;;5029273;28;20040;-57
2022/02/27 03:42:41;;;;;;;18.70;6.03;;;2.70;99.90;;;;;;5029123;28;20095;-59
2022/02/27 03:45:07;;;;;;;14.02;5.47;;;2.70;99.90;;;;;;5028513;28;20439;-59
2022/02/27 03:47:33;;;;;;;16.38;5.88;;;2.70;99.90;;;;;;5029186;28;20033;-60
2022/02/27 03:49:58;;;;;;;14.02;6.13;;;2.70;99.90;;;;;;5029290;28;20026;-57
2022/02/27 03:52:24;;;;;;;16.45;5.45;;;2.70;99.90;;;;;;5029151;28;20475;-54
2022/02/27 03:54:50;;;;;;;14.75;5.05;;;2.70;99.90;;;;;;5028696;28;20038;-60
2022/02/27 03:57:15;;;;;;;15.10;5.25;;;2.60;99.90;;;;;;5029099;28;20037;-57
2022/02/27 03:59:41;;;;;;;14.13;5.50;;;2.60;99.90;;;;;;5028790;28;20096;-57
2022/02/27 04:02:06;;;;;;;13.90;4.95;;;2.60;99.90;;;;;;5029457;28;20022;-57
2022/02/27 04:04:32;;;;;;;12.80;4.70;;;2.60;99.90;;;;;;5029052;28;20321;-58
2022/02/27 04:06:58;;;;;;;15.95;6.10;;;2.60;99.90;;;;;;5026471;28;20336;-60
2022/02/27 04:09:24;;;;;;;18.33;6.28;;;2.60;99.90;;;;;;5049559;28;20025;-59
2022/02/27 04:11:49;;;;;;;14.30;5.20;;;2.60;99.90;;;;;;5048450;28;20139;-57
2022/02/27 04:14:15;;;;;;;14.82;6.18;;;2.60;99.90;;;;;;5048787;28;20029;-56
2022/02/27 04:16:41;;;;;;;18.50;5.03;;;2.50;99.90;;;;;;5050339;28;20343;-57
2022/02/27 04:19:07;;;;;;;12.43;4.95;;;2.50;99.90;;;;;;5052957;28;20044;-54
2022/02/27 04:21:34;;;;;;;20.65;5.85;;;2.60;99.90;;;;;;5052625;28;20021;-54
2022/02/27 04:24:00;;;;;;;12.90;5.07;;;2.60;99.90;;;;;;5052426;28;20100;-56
2022/02/27 04:26:26;;;;;;;19.45;5.80;;;2.60;99.90;;;;;;5052077;28;20115;-59
2022/02/27 04:28:51;;;;;;;16.50;5.35;;;2.50;99.90;;;;;;5051692;28;20028;-56
2022/02/27 04:31:17;;;;;;;17.65;5.60;;;2.50;99.90;;;;;;5052625;28;20067;-58
2022/02/27 04:33:43;;;;;;;17.33;5.75;;;2.40;99.90;;;;;;5052116;28;20025;-61
2022/02/27 04:36:09;;;;;;;11.23;5.03;;;2.50;99.90;;;;;;5051762;28;20541;-58
2022/02/27 04:38:34;;;;;;;12.10;5.38;;;2.50;99.90;;;;;;5052273;28;20116;-58
2022/02/27 04:41:00;;;;;;;12.82;4.78;;;2.50;99.90;;;;;;5052193;28;20388;-58
2022/02/27 04:43:26;;;;;;;19.52;5.28;;;2.40;99.90;;;;;;5052201;28;20025;-58
2022/02/27 04:45:52;;;;;;;16.85;5.80;;;2.40;99.90;;;;;;5051415;28;20025;-58
2022/02/27 04:48:17;;;;;;;12.65;5.15;;;2.40;99.90;;;;;;5052695;28;20029;-59
2022/02/27 04:50:43;;;;;;;14.93;5.82;;;2.40;99.90;;;;;;5052077;28;20117;-59
2022/02/27 04:53:09;;;;;;;18.73;5.43;;;2.40;99.90;;;;;;5052388;28;20032;-62
2022/02/27 04:55:34;;;;;;;15.95;5.53;;;2.30;99.90;;;;;;5050953;28;20033;-60
2022/02/27 04:58:00;;;;;;;13.98;5.47;;;2.30;99.90;;;;;;5051898;28;20402;-60
2022/02/27 05:00:26;;;;;;;14.23;5.85;;;2.30;99.90;;;;;;5052367;28;20033;-62
2022/02/27 05:02:51;;;;;;;12.68;5.05;;;2.30;99.90;;;;;;5051614;28;20096;-60
2022/02/27 05:05:17;;;;;;;13.57;4.97;;;2.20;99.90;;;;;;5049916;28;20025;-59
2022/02/27 05:07:42;;;;;;;15.50;5.60;;;2.20;99.90;;;;;;5031437;28;20037;-60
2022/02/27 05:10:09;;;;;;;18.80;5.57;;;2.10;99.90;;;;;;5031867;28;20036;-58
2022/02/27 05:12:41;;;;;;;26.45;5.55;;;2.20;99.90;;;;;;5031122;28;20514;-60
2022/02/27 05:15:08;;;;;;;18.05;5.72;;;2.10;99.90;;;;;;5030910;28;20442;-63
2022/02/27 05:17:35;;;;;;;19.02;6.45;;;2.10;99.90;;;;;;5031175;28;20504;-60
2022/02/27 05:20:01;;;;;;;15.25;5.70;;;2.10;99.90;;;;;;5013852;28;20025;-55
2022/02/27 05:22:26;;;;;;;15.40;6.03;;;2.10;99.90;;;;;;5031703;28;20032;-58
2022/02/27 05:24:52;;;;;;;17.95;6.20;;;2.10;99.90;;;;;;5030696;28;20025;-58
2022/02/27 05:27:18;;;;;;;18.33;6.07;;;2.10;99.90;;;;;;5030899;28;20029;-54
2022/02/27 05:29:43;;;;;;;18.33;5.70;;;2.10;99.90;;;;;;5031065;28;20050;-57
2022/02/27 05:32:09;;;;;;;17.30;5.95;;;2.00;99.90;;;;;;5031654;28;20072;-55
2022/02/27 05:34:35;;;;;;;22.27;6.57;;;2.10;99.90;;;;;;5031104;28;20041;-61
2022/02/27 05:37:00;;;;;;;18.13;5.22;;;2.10;99.90;;;;;;5031005;28;20506;-57
2022/02/27 05:39:26;;;;;;;17.98;5.63;;;2.10;99.90;;;;;;5013734;28;20037;-59
2022/02/27 05:41:51;;;;;;;16.23;5.35;;;2.00;99.90;;;;;;5030916;28;20057;-57
2022/02/27 05:44:17;;;;;;;13.77;5.78;;;2.00;99.90;;;;;;5013793;28;20337;-57
2022/02/27 05:46:43;;;;;;;17.38;5.00;;;2.00;99.90;;;;;;5030223;28;20044;-58
2022/02/27 05:49:09;;;;;;;14.98;5.22;;;1.90;99.90;;;;;;5031105;28;20025;-57
2022/02/27 05:51:34;;;;;;;19.80;6.00;;;1.90;99.90;;;;;;5030636;28;20029;-59
2022/02/27 05:54:00;;;;;;;17.88;6.38;;;1.90;99.90;;;;;;5030983;28;20025;-60
2022/02/27 05:56:26;;;;;;;19.60;5.82;;;1.90;99.90;;;;;;5030294;28;20129;-56
2022/02/27 05:58:51;;;;;;;14.95;5.60;;;1.90;99.90;;;;;;5030843;28;20033;-57
2022/02/27 06:01:18;;;;;;;14.27;6.30;;;1.80;99.90;;;;;;5030895;28;20305;-60
2022/02/27 06:03:43;;;;;;;20.60;5.85;;;1.80;99.90;;;;;;5030523;28;20018;-60
2022/02/27 06:06:09;;;;;;;17.83;5.65;;;1.70;99.90;;;;;;5039720;28;20394;-54
2022/02/27 06:08:35;;;;;;;14.43;5.70;;;1.80;99.90;;;;;;5050260;28;20029;-56
2022/02/27 06:11:01;;;;;;;16.48;6.43;;;1.80;99.90;;;;;;5050831;28;20044;-59
2022/02/27 06:13:27;;;;;;;13.70;5.80;;;1.80;99.90;;;;;;5033007;28;20056;-57
2022/02/27 06:15:53;;;;;;;22.70;6.32;;;1.70;99.90;;;;;;5049891;28;20431;-63
2022/02/27 06:18:19;;;;;;;16.77;6.22;;;1.70;99.90;;;;;;5051541;28;20379;-59
2022/02/27 06:20:45;;;;;;;13.48;6.00;;;1.80;99.90;;;;;;5050046;28;20025;-59
2022/02/27 06:23:11;;;;;;;18.83;6.40;;;1.80;99.90;;;;;;5050697;28;20041;-56
2022/02/27 06:25:37;;;;;;;14.98;5.70;;;1.80;99.90;;;;;;5031553;28;20108;-58
2022/02/27 06:28:04;;;;;;;15.60;6.53;;;1.80;99.90;;;;;;5050665;28;20112;-59
2022/02/27 06:30:30;;;;;;;21.80;6.72;;;1.80;99.90;;;;;;5050285;28;20056;-59
2022/02/27 06:32:55;;;;;;;19.67;6.60;;;1.80;99.90;;;;;;5032552;28;20025;-57
2022/02/27 06:35:23;;;;;;;22.38;7.20;;;1.80;99.90;;;;;;5049563;28;20043;-61
2022/02/27 06:37:49;;;;;;;20.20;7.07;;;1.80;99.90;;;;;;5049581;28;20043;-59
2022/02/27 06:40:15;;;;;;;17.48;7.28;;;1.80;99.90;;;;;;5049927;28;20493;-59
2022/02/27 06:42:42;;;;;;;15.40;6.10;;;1.80;99.90;;;;;;5049879;28;20043;-59
2022/02/27 06:45:09;;;;;;;21.25;5.63;;;1.80;99.90;;;;;;5049604;28;20025;-59
2022/02/27 06:47:35;;;;;;;16.67;6.15;;;1.80;99.90;;;;;;5049195;28;20115;-57
2022/02/27 06:50:01;;;;;;;14.48;6.70;;;1.80;99.90;;;;;;5050090;28;20466;-56
2022/02/27 06:52:26;;;;;;;22.70;7.07;;;1.80;99.90;;;;;;5049849;28;20398;-57
2022/02/27 06:54:52;;;;;;;18.13;5.82;;;1.80;99.90;;;;;;5048906;28;20056;-59
2022/02/27 06:57:17;;;;;;;20.10;6.32;;;1.80;99.90;;;;;;5049983;28;20046;-56
2022/02/27 06:59:43;;;;;;;19.08;6.97;;;1.90;99.90;;;;;;5049119;28;20055;-57
2022/02/27 07:02:09;;;;;;;19.80;7.60;;;2.00;99.90;;;;;;5032504;28;20033;-57
2022/02/27 07:04:36;;;;;;;16.80;6.65;;;1.90;99.90;;;;;;5049618;28;20491;-56
2022/02/27 07:07:03;;;;;;;15.50;6.97;;;1.90;99.90;;;;;;5032573;28;20026;-58
2022/02/27 07:09:28;;;;;;;22.38;6.35;;;2.00;99.90;;;;;;5030005;28;20091;-62
2022/02/27 07:11:54;;;;;;;17.52;6.50;;;2.00;99.90;;;;;;5029927;28;20037;-58
2022/02/27 07:14:20;;;;;;;20.48;6.47;;;2.00;99.90;;;;;;5030229;28;21654;-57
2022/02/27 07:16:46;;;;;;;16.88;6.50;;;2.10;99.90;;;;;;5028842;28;20028;-58
2022/02/27 07:19:12;;;;;;;16.73;6.63;;;2.00;99.90;;;;;;5029879;28;20030;-56
2022/02/27 07:21:38;;;;;;;18.42;7.43;;;2.00;99.90;;;;;;5029409;28;20112;-59
2022/02/27 07:24:04;;;;;;;21.02;6.82;;;2.10;99.90;;;;;;5030044;28;20034;-54
2022/02/27 07:26:30;;;;;;;18.42;6.43;;;2.20;99.90;;;;;;5028945;28;20494;-59
2022/02/27 07:28:56;;;;;;;19.75;7.07;;;2.20;99.90;;;;;;5029644;28;20030;-59
2022/02/27 07:31:22;;;;;;;20.60;7.07;;;2.20;99.90;;;;;;5012157;28;20175;-56
2022/02/27 07:33:49;;;;;;;23.05;8.27;;;2.30;99.90;;;;;;5029203;28;20065;-58
2022/02/27 07:36:15;;;;;;;20.38;7.40;;;2.20;99.90;;;;;;5029263;28;20104;-57
2022/02/27 07:38:40;;;;;;;21.02;7.10;;;2.30;99.90;;;;;;5028974;28;20445;-60
2022/02/27 07:41:06;;;;;;;21.90;7.25;;;2.30;99.90;;;;;;5029700;28;20022;-57
2022/02/27 07:43:31;;;;;;;21.63;7.50;;;2.30;99.90;;;;;;5029520;28;20029;-57
2022/02/27 07:45:57;;;;;;;18.88;7.22;;;2.30;99.90;;;;;;5028807;28;20132;-59
2022/02/27 07:48:23;;;;;;;24.92;7.07;;;2.40;99.90;;;;;;5029392;28;20029;-60
2022/02/27 07:50:48;;;;;;;19.02;6.82;;;2.40;99.90;;;;;;5028444;28;20044;-59
2022/02/27 07:53:14;;;;;;;18.23;7.20;;;2.40;99.90;;;;;;5029127;28;20101;-56
2022/02/27 07:55:39;;;;;;;22.63;8.25;;;2.40;99.90;;;;;;5028002;28;20060;-59
2022/02/27 07:58:05;;;;;;;14.45;6.75;;;2.40;99.90;;;;;;5029235;28;20045;-60
2022/02/27 08:00:31;;;;;;;16.48;7.22;;;2.50;99.90;;;;;;5028247;28;20041;-59
2022/02/27 08:02:57;;;;;;;22.00;8.55;;;2.60;99.90;;;;;;5029542;28;20364;-60
2022/02/27 08:05:22;;;;;;;19.85;7.20;;;2.60;99.90;;;;;;5030805;28;20050;-59
2022/02/27 08:07:48;;;;;;;21.13;7.90;;;2.70;99.90;;;;;;5048936;28;20498;-61
2022/02/27 08:10:14;;;;;;;21.63;7.85;;;2.70;99.90;;;;;;5048730;28;20029;-57
2022/02/27 08:12:41;;;;;;;18.02;7.18;;;2.70;99.90;;;;;;5048488;28;20159;-58
2022/02/27 08:15:10;;;;;;;18.45;6.88;;;2.70;99.90;;;;;;5048378;28;20033;-59
2022/02/27 08:17:36;;;;;;;19.40;7.15;;;2.80;99.90;;;;;;5048289;28;20028;-60
2022/02/27 08:20:05;;;;;;;24.77;6.95;;;2.70;99.90;;;;;;5048780;28;20112;-57
2022/02/27 08:22:31;;;;;;;19.35;6.88;;;2.80;99.90;;;;;;5048544;28;20344;-60
2022/02/27 08:24:56;;;;;;;24.17;7.55;;;2.90;99.90;;;;;;5048458;28;20381;-57
2022/02/27 08:27:22;;;;;;;19.30;7.50;;;2.90;99.90;;;;;;5048330;28;20092;-55
2022/02/27 08:29:49;;;;;;;16.92;6.78;;;3.00;99.90;;;;;;5048660;28;20616;-56
2022/02/27 08:32:19;;;;;;;18.60;6.85;;;3.00;99.90;;;;;;5038571;28;20049;-58
2022/02/27 08:34:45;;;;;;;24.15;7.15;;;3.00;99.90;;;;;;5045169;28;20041;-60
2022/02/27 08:37:10;;;;;;;22.85;8.07;;;3.10;99.90;;;;;;5048050;28;20182;-57
2022/02/27 08:39:36;;;;;;;19.58;7.22;;;3.20;99.90;;;;;;5048030;28;20036;-59
2022/02/27 08:42:04;;;;;;;19.45;7.68;;;3.20;99.90;;;;;;5048569;28;20410;-60
2022/02/27 08:44:33;;;;;;;17.98;7.60;;;3.20;99.90;;;;;;5048165;28;20033;-57
2022/02/27 08:47:00;;;;;;;25.20;7.70;;;3.20;99.90;;;;;;5051300;28;20394;-59
2022/02/27 08:49:26;;;;;;;19.95;7.78;;;3.40;99.90;;;;;;5054715;28;20480;-56
2022/02/27 08:51:51;;;;;;;19.88;8.25;;;3.40;99.90;;;;;;5028493;28;20380;-58
2022/02/27 08:54:18;;;;;;;21.40;8.32;;;3.50;99.90;;;;;;5010907;28;20029;-59
2022/02/27 08:56:43;;;;;;;24.67;8.27;;;3.60;99.90;;;;;;5027263;28;20103;-61
2022/02/27 08:59:09;;;;;;;27.70;8.55;;;3.70;99.90;;;;;;5032376;28;20480;-61
2022/02/27 09:01:35;;;;;;;18.52;7.70;;;3.70;99.90;;;;;;5026606;28;20029;-60
2022/02/27 09:04:01;;;;;;;21.92;8.00;;;3.60;99.90;;;;;;5048929;28;20037;-61
2022/02/27 09:06:26;;;;;;;19.23;8.43;;;3.80;99.90;;;;;;5046466;28;20021;-62
2022/02/27 09:08:52;;;;;;;20.20;7.50;;;3.80;99.90;;;;;;5043199;28;20029;-60
2022/02/27 09:11:17;;;;;;;20.42;8.23;;;3.90;99.90;;;;;;5050389;28;20029;-61
2022/02/27 09:13:43;;;;;;;21.60;7.78;;;4.10;99.90;;;;;;5043208;28;20336;-61
2022/02/27 09:16:09;;;;;;;21.00;7.45;;;4.20;99.90;;;;;;5050418;28;20518;-61
2022/02/27 09:18:34;;;;;;;28.40;8.77;;;4.30;99.90;;;;;;5049993;28;20061;-60
2022/02/27 09:21:01;;;;;;;20.35;7.47;;;4.50;99.90;;;;;;5051288;28;20037;-61
2022/02/27 09:23:26;;;;;;;25.98;9.10;;;4.60;99.90;;;;;;5032955;28;20502;-58
2022/02/27 09:25:52;;;;;;;23.23;8.60;;;4.70;99.90;;;;;;5049302;28;20033;-59
2022/02/27 09:28:18;;;;;;;26.92;10.13;;;4.80;99.90;;;;;;5037974;28;20032;-59
2022/02/27 09:30:44;;;;;;;16.77;7.85;;;4.80;99.90;;;;;;5038459;28;20037;-60
2022/02/27 09:33:10;;;;;;;24.38;9.07;;;4.80;99.90;;;;;;5047213;28;20099;-61
2022/02/27 09:35:36;;;;;;;21.33;8.60;;;4.80;99.90;;;;;;5043946;28;20094;-59
2022/02/27 09:38:01;;;;;;;25.92;8.55;;;4.80;99.90;;;;;;5046823;28;20052;-60
2022/02/27 09:40:28;;;;;;;21.02;9.18;;;4.80;99.90;;;;;;5050047;28;20033;-60
2022/02/27 09:42:55;;;;;;;23.10;8.13;;;4.80;99.90;;;;;;5049771;28;20128;-61
2022/02/27 09:45:21;;;;;;;22.25;7.72;;;4.90;99.90;;;;;;5049834;28;20112;-60
2022/02/27 09:47:48;;;;;;;19.38;7.93;;;5.10;99.90;;;;;;5050190;28;20025;-61
2022/02/27 09:50:15;;;;;;;21.08;8.02;;;5.20;99.90;;;;;;5031200;28;20398;-60
2022/02/27 09:52:40;;;;;;;17.00;7.13;;;5.40;99.90;;;;;;5050213;28;20036;-62
2022/02/27 09:55:08;;;;;;;19.27;7.35;;;5.50;99.90;;;;;;5049144;28;20037;-61
2022/02/27 09:57:34;;;;;;;21.52;8.15;;;5.60;99.90;;;;;;5047035;28;21841;-61
2022/02/27 10:00:00;;;;;;;20.83;8.38;;;5.60;99.90;;;;;;5041315;28;20075;-61
2022/02/27 10:02:27;;;;;;;20.70;7.82;;;5.60;99.90;;;;;;5049849;28;20103;-61
2022/02/27 10:04:59;;;;;;;14.70;7.13;;;5.70;99.90;;;;;;5050114;28;20391;-60
2022/02/27 10:07:25;;;;;;;13.70;6.25;;;5.70;99.90;;;;;;5043340;28;20025;-60
2022/02/27 10:10:07;;;;;;;24.00;7.72;;;5.70;99.90;;;;;;5046030;28;20453;-60
2022/02/27 10:12:32;;;;;;;17.20;6.75;;;5.90;99.90;;;;;;5045802;28;20025;-60
2022/02/27 10:14:59;;;;;;;17.90;6.60;;;6.10;99.90;;;;;;5048755;28;20037;-61
2022/02/27 10:17:33;;;;;;;20.30;7.53;;;6.10;99.90;;;;;;5051858;28;20025;-63
2022/02/27 10:19:59;;;;;;;22.13;7.85;;;6.30;99.90;;;;;;5049105;28;20030;-64
2022/02/27 10:22:31;;;;;;;15.85;6.88;;;6.40;99.90;;;;;;5044961;28;20396;-64
2022/02/27 10:24:56;;;;;;;23.02;7.30;;;6.40;99.90;;;;;;5045070;28;20032;-61
2022/02/27 10:27:22;;;;;;;22.67;7.63;;;6.50;99.90;;;;;;5064587;28;20386;-59
2022/02/27 10:29:48;;;;;;;17.85;7.43;;;6.50;99.90;;;;;;5043902;28;20128;-61
2022/02/27 10:32:13;;;;;;;19.10;6.85;;;6.60;99.90;;;;;;5050251;28;20426;-62
2022/02/27 10:34:40;;;;;;;20.63;7.30;;;6.70;99.90;;;;;;5046307;28;20052;-58
2022/02/27 10:37:16;;;;;;;19.65;6.55;;;6.70;99.90;;;;;;5047197;28;20025;-63
2022/02/27 10:39:43;;;;;;;17.80;7.32;;;6.80;99.90;;;;;;5046607;28;20112;-62
2022/02/27 10:42:20;;;;;;;15.48;6.72;;;7.00;99.90;;;;;;5048502;28;20503;-62
2022/02/27 10:44:55;;;;;;;19.38;6.60;;;7.10;99.90;;;;;;5046093;28;20053;-61
2022/02/27 10:47:24;;;;;;;21.65;6.32;;;7.20;99.90;;;;;;5046786;28;20021;-64
2022/02/27 10:49:52;;;;;;;20.05;7.13;;;7.20;99.90;;;;;;5031760;28;20380;-54
2022/02/27 10:52:24;;;;;;;23.48;6.70;;;7.20;99.90;;;;;;5049308;28;20429;-58
2022/02/27 10:54:55;;;;;;;17.52;6.47;;;7.00;99.90;;;;;;5049375;28;20087;-61
2022/02/27 10:57:35;;;;;;;19.02;7.45;;;6.90;99.90;;;;;;5048788;28;20045;-62
2022/02/27 11:00:23;;;;;;;15.15;5.57;;;7.20;99.90;;;;;;5046013;28;20033;-58
2022/02/27 11:03:01;;;;;;;19.27;6.25;;;7.40;99.90;;;;;;5048224;28;20371;-59
2022/02/27 11:05:30;;;;;;;18.67;5.68;;;7.30;99.90;;;;;;5040970;28;20072;-58
2022/02/27 11:07:58;;;;;;;15.15;5.80;;;7.30;99.90;;;;;;5049719;28;20081;-62
2022/02/27 11:10:29;;;;;;;13.27;5.40;;;7.40;99.90;;;;;;5049881;28;20108;-60
2022/02/27 11:13:05;;;;;;;14.60;5.97;;;7.70;99.90;;;;;;5050048;28;20119;-63
2022/02/27 11:15:32;;;;;;;18.13;6.50;;;7.80;99.90;;;;;;5047777;28;20043;-63
2022/02/27 11:17:58;;;;;;;12.38;5.38;;;7.90;99.90;;;;;;5046126;28;20029;-64
2022/02/27 11:20:24;;;;;;;18.30;6.50;;;8.10;99.90;;;;;;5038997;28;20047;-65
2022/02/27 11:22:52;;;;;;;18.17;6.70;;;8.30;99.90;;;;;;5048017;28;20055;-65
2022/02/27 11:25:18;;;;;;;17.25;6.95;;;8.10;99.90;;;;;;5047663;28;20013;-64
2022/02/27 11:27:48;;;;;;;16.60;6.35;;;8.00;99.90;;;;;;5048514;28;20021;-64
2022/02/27 11:30:27;;;;;;;14.32;6.38;;;8.10;99.90;;;;;;5030572;28;20029;-63
2022/02/27 11:32:57;;;;;;;17.73;6.63;;;8.10;99.90;;;;;;5038803;28;20275;-64
2022/02/27 11:35:45;;;;;;;21.45;6.32;;;8.20;99.90;;;;;;5046680;28;20115;-63
2022/02/27 11:38:12;;;;;;;15.15;5.43;;;8.50;99.90;;;;;;5036134;28;20030;-61
2022/02/27 11:40:43;;;;;;;18.08;6.03;;;8.40;99.90;;;;;;5041192;28;20039;-63
2022/02/27 11:43:10;;;;;;;16.42;5.95;;;8.70;99.90;;;;;;5040951;28;20037;-61
2022/02/27 11:45:38;;;;;;;15.60;6.55;;;8.70;99.90;;;;;;5047589;28;20021;-61
2022/02/27 11:48:05;;;;;;;17.63;6.10;;;8.70;99.90;;;;;;5029630;28;20057;-62
2022/02/27 11:50:43;;;;;;;13.77;6.25;;;9.00;99.90;;;;;;5029559;28;20109;-62
2022/02/27 11:53:27;;;;;;;13.68;5.88;;;9.40;99.90;;;;;;5029182;28;20025;-63
2022/02/27 11:55:56;;;;;;;12.43;5.70;;;9.30;99.90;;;;;;5028182;28;20101;-63
2022/02/27 11:58:27;;;;;;;16.23;5.30;;;9.40;99.90;;;;;;5029173;28;20033;-63
2022/02/27 12:00:58;;;;;;;14.23;5.80;;;9.50;99.90;;;;;;5028473;28;20031;-62
2022/02/27 12:03:29;;;;;;;14.23;5.28;;;9.70;99.90;;;;;;5028345;28;20049;-60
2022/02/27 12:05:57;;;;;;;14.43;5.00;;;9.90;99.90;;;;;;5028563;28;20079;-61
2022/02/27 12:08:53;;;;;;;15.15;5.45;;;10.60;99.90;;;;;;5029222;28;20471;-63
2022/02/27 12:11:25;;;;;;;15.65;5.05;;;11.40;99.90;;;;;;5029016;28;20061;-63
2022/02/27 12:14:04;;;;;;;13.00;4.22;;;12.20;99.90;;;;;;5028650;28;20515;-64
2022/02/27 12:16:41;;;;;;;12.85;4.75;;;12.70;99.90;;;;;;5028676;28;20397;-62
2022/02/27 12:19:22;;;;;;;10.90;4.88;;;13.00;98.60;;;;;;5028932;28;20053;-65
2022/02/27 12:21:49;;;;;;;13.65;4.60;;;13.30;98.60;;;;;;5028330;28;20033;-63
2022/02/27 12:24:22;;;;;;;9.50;4.80;;;13.50;94.70;;;;;;5029242;28;20064;-65
2022/02/27 12:26:53;;;;;;;13.80;5.05;;;13.20;95.40;;;;;;5027976;28;20480;-63
2022/02/27 12:29:20;;;;;;;13.65;4.45;;;13.10;96.00;;;;;;5029112;28;20034;-60
2022/02/27 12:31:45;;;;;;;11.35;4.60;;;13.10;95.90;;;;;;5028700;28;20023;-66
2022/02/27 12:34:18;;;;;;;11.38;4.75;;;13.60;95.20;;;;;;5028869;28;20041;-65
2022/02/27 12:36:48;;;;;;;15.50;5.15;;;13.50;94.90;;;;;;5028494;28;20117;-66
2022/02/27 12:39:15;;;;;;;11.50;4.72;;;13.70;95.70;;;;;;5032954;28;20105;-64
2022/02/27 12:41:46;;;;;;;9.82;4.25;;;13.90;93.90;;;;;;5032060;28;20025;-63
2022/02/27 12:44:27;;;;;;;10.95;5.13;;;14.00;93.10;;;;;;5015317;28;20398;-62